createdAt,value
2018-09-13T00:01:01.179Z,2.80
2018-09-13T00:03:30.152Z,2.43
2018-09-13T00:05:58.828Z,2.87
2018-09-13T00:08:27.533Z,2.63
2018-09-13T00:10:56.179Z,3.97
2018-09-13T00:13:24.916Z,3.63
2018-09-13T00:15:53.547Z,2.93
2018-09-13T00:18:22.229Z,3.30
2018-09-13T00:20:51.061Z,2.77
2018-09-13T00:23:19.731Z,1.77
2018-09-13T00:25:48.383Z,2.73
2018-09-13T00:28:17.030Z,2.63
2018-09-13T00:30:45.651Z,2.57
2018-09-13T00:33:14.316Z,1.90
2018-09-13T00:35:43.008Z,7.03
2018-09-13T00:38:11.685Z,2.97
2018-09-13T00:40:40.337Z,3.37
2018-09-13T00:43:09.043Z,2.47
2018-09-13T00:45:37.649Z,1.97
2018-09-13T00:48:06.333Z,2.60
2018-09-13T00:50:34.934Z,3.33
2018-09-13T00:53:03.568Z,3.13
2018-09-13T00:55:32.201Z,2.23
2018-09-13T00:58:00.871Z,4.37
2018-09-13T01:00:29.526Z,4.23
2018-09-13T01:02:58.168Z,3.47
2018-09-13T01:05:26.838Z,2.80
2018-09-13T01:07:55.474Z,2.27
2018-09-13T01:10:24.131Z,3.40
2018-09-13T01:12:52.798Z,2.53
2018-09-13T01:15:21.445Z,2.77
2018-09-13T01:17:50.357Z,2.83
2018-09-13T01:20:19.018Z,2.50
2018-09-13T01:22:47.690Z,3.27
2018-09-13T01:25:16.338Z,3.03
2018-09-13T01:27:45.022Z,3.50
2018-09-13T01:30:13.703Z,2.63
2018-09-13T01:32:42.358Z,3.17
2018-09-13T01:35:11.045Z,2.90
2018-09-13T01:37:39.673Z,3.00
2018-09-13T01:40:08.497Z,3.30
2018-09-13T01:42:37.125Z,3.00
2018-09-13T01:45:05.827Z,2.90
2018-09-13T01:47:34.520Z,3.03
2018-09-13T01:50:03.240Z,3.00
2018-09-13T01:52:31.848Z,2.63
2018-09-13T01:55:00.519Z,3.60
2018-09-13T01:57:29.125Z,3.03
2018-09-13T01:59:57.759Z,4.53
2018-09-13T02:02:26.392Z,2.80
2018-09-13T02:04:55.049Z,2.67
2018-09-13T02:07:23.699Z,3.20
2018-09-13T02:09:52.312Z,2.77
2018-09-13T02:12:20.932Z,4.60
2018-09-13T02:14:49.603Z,3.73
2018-09-13T02:17:18.197Z,3.00
2018-09-13T02:19:46.841Z,2.63
2018-09-13T02:22:15.450Z,5.90
2018-09-13T02:24:44.084Z,5.10
2018-09-13T02:27:12.776Z,3.37
2018-09-13T02:29:41.429Z,4.57
2018-09-13T02:32:10.081Z,4.27
2018-09-13T02:34:38.701Z,3.17
2018-09-13T02:37:07.386Z,4.10
2018-09-13T02:39:36.104Z,4.53
2018-09-13T02:42:04.794Z,4.40
2018-09-13T02:44:33.434Z,5.07
2018-09-13T02:47:02.166Z,4.20
2018-09-13T02:49:30.823Z,5.00
2018-09-13T02:51:59.444Z,4.30
2018-09-13T02:54:28.125Z,4.23
2018-09-13T02:56:56.772Z,4.80
2018-09-13T02:59:25.416Z,4.90
2018-09-13T03:01:54.602Z,4.43
2018-09-13T03:04:23.239Z,4.83
2018-09-13T03:06:51.884Z,4.53
2018-09-13T03:09:20.507Z,6.00
2018-09-13T03:11:49.158Z,4.83
2018-09-13T03:14:17.811Z,4.27
2018-09-13T03:16:46.447Z,6.47
2018-09-13T03:19:15.090Z,5.60
2018-09-13T03:21:43.739Z,5.60
2018-09-13T03:24:12.340Z,4.40
2018-09-13T03:26:41.020Z,5.37
2018-09-13T03:29:09.769Z,6.33
2018-09-13T03:31:38.414Z,4.80
2018-09-13T03:34:07.213Z,5.27
2018-09-13T03:36:35.853Z,5.07
2018-09-13T03:39:06.658Z,7.07
2018-09-13T03:41:35.347Z,6.50
2018-09-13T03:44:03.977Z,7.17
2018-09-13T03:46:32.610Z,5.27
2018-09-13T03:49:01.401Z,6.83
2018-09-13T03:51:30.056Z,5.63
2018-09-13T03:53:58.681Z,7.73
2018-09-13T03:56:27.548Z,8.17
2018-09-13T03:58:56.242Z,5.80
2018-09-13T04:01:26.950Z,7.40
2018-09-13T04:03:55.656Z,8.77
2018-09-13T04:06:24.389Z,8.43
2018-09-13T04:08:53.042Z,7.53
2018-09-13T04:11:21.693Z,9.77
2018-09-13T04:13:50.304Z,10.00
2018-09-13T04:16:18.998Z,11.10
2018-09-13T04:18:47.962Z,9.17
2018-09-13T04:21:16.653Z,9.60
2018-09-13T04:23:45.325Z,10.33
2018-09-13T04:26:13.952Z,13.13
2018-09-13T04:28:42.632Z,11.73
2018-09-13T04:31:11.264Z,13.07
2018-09-13T04:33:39.914Z,11.73
2018-09-13T04:36:08.621Z,15.43
2018-09-13T04:38:37.334Z,12.53
2018-09-13T04:41:05.931Z,11.40
2018-09-13T04:43:34.633Z,6.67
2018-09-13T04:46:03.302Z,6.00
2018-09-13T04:48:32.176Z,9.03
2018-09-13T04:51:00.896Z,6.67
2018-09-13T04:53:29.660Z,5.80
2018-09-13T04:55:58.345Z,7.43
2018-09-13T04:58:27.125Z,7.07
2018-09-13T05:00:55.769Z,10.73
2018-09-13T05:03:24.565Z,8.17
2018-09-13T05:05:53.179Z,6.87
2018-09-13T05:08:21.816Z,5.67
2018-09-13T05:10:50.451Z,9.47
2018-09-13T05:13:19.323Z,10.47
2018-09-13T05:15:48.029Z,10.70
2018-09-13T05:18:16.705Z,8.40
2018-09-13T05:20:45.021Z,7.53
2018-09-13T05:23:13.668Z,9.00
2018-09-13T05:25:42.318Z,8.37
2018-09-13T05:28:11.000Z,8.97
2018-09-13T05:30:39.632Z,11.87
2018-09-13T05:33:08.279Z,10.83
2018-09-13T05:35:36.922Z,10.67
2018-09-13T05:38:05.649Z,10.13
2018-09-13T05:40:34.571Z,9.07
2018-09-13T05:43:03.277Z,9.90
2018-09-13T05:45:32.002Z,8.23
2018-09-13T05:48:00.616Z,6.43
2018-09-13T05:50:29.267Z,8.60
2018-09-13T05:52:57.872Z,6.87
2018-09-13T05:55:26.928Z,6.40
2018-09-13T05:57:55.609Z,8.67
2018-09-13T06:00:24.180Z,6.87
2018-09-13T06:02:52.798Z,6.13
2018-09-13T06:05:21.437Z,7.03
2018-09-13T06:07:50.186Z,9.80
2018-09-13T06:10:20.060Z,8.93
2018-09-13T06:12:48.716Z,7.57
2018-09-13T06:15:17.361Z,6.13
2018-09-13T06:17:46.002Z,11.03
2018-09-13T06:20:14.748Z,9.30
2018-09-13T06:22:43.397Z,8.10
2018-09-13T06:25:12.047Z,7.13
2018-09-13T06:27:40.700Z,7.77
2018-09-13T06:30:09.369Z,6.57
2018-09-13T06:32:38.014Z,8.60
2018-09-13T06:35:07.072Z,8.03
2018-09-13T06:37:35.753Z,7.67
2018-09-13T06:40:04.534Z,7.70
2018-09-13T06:42:33.248Z,7.23
2018-09-13T06:45:01.821Z,6.40
2018-09-13T06:47:30.433Z,7.40
2018-09-13T06:49:59.090Z,8.43
2018-09-13T06:52:27.781Z,7.40
2018-09-13T06:54:56.512Z,5.10
2018-09-13T06:57:25.666Z,8.43
2018-09-13T06:59:54.349Z,6.13
2018-09-13T07:02:23.055Z,5.80
2018-09-13T07:04:51.714Z,5.30
2018-09-13T07:07:20.423Z,5.17
2018-09-13T07:09:49.107Z,5.93
2018-09-13T07:12:17.791Z,5.47
2018-09-13T07:14:46.452Z,7.37
2018-09-13T07:17:15.099Z,6.33
2018-09-13T07:19:43.784Z,5.50
2018-09-13T07:22:12.427Z,5.40
2018-09-13T07:24:41.111Z,4.83
2018-09-13T07:27:09.772Z,6.23
2018-09-13T07:29:38.410Z,5.27
2018-09-13T07:32:07.074Z,7.47
2018-09-13T07:34:35.722Z,9.70
2018-09-13T07:37:04.425Z,8.60
2018-09-13T07:39:33.202Z,7.80
2018-09-13T07:42:01.894Z,10.40
2018-09-13T07:44:30.553Z,7.30
2018-09-13T07:46:59.229Z,6.00
2018-09-13T07:49:27.984Z,7.23
2018-09-13T07:51:56.693Z,7.43
2018-09-13T07:54:25.389Z,5.90
2018-09-13T07:56:54.024Z,7.43
2018-09-13T07:59:22.665Z,8.40
2018-09-13T08:01:51.370Z,8.67
2018-09-13T08:04:20.002Z,5.97
2018-09-13T08:06:48.696Z,6.83
2018-09-13T08:09:17.391Z,7.07
2018-09-13T08:11:46.086Z,8.07
2018-09-13T08:14:14.715Z,10.97
2018-09-13T08:16:43.412Z,8.37
2018-09-13T08:19:12.388Z,10.47
2018-09-13T08:21:41.128Z,9.10
2018-09-13T08:24:09.776Z,13.53
2018-09-13T08:26:38.395Z,10.13
2018-09-13T08:29:07.075Z,10.27
2018-09-13T08:31:35.701Z,10.00
2018-09-13T08:34:04.445Z,9.40
2018-09-13T08:36:33.187Z,10.37
2018-09-13T08:39:01.867Z,15.83
2018-09-13T08:41:30.605Z,8.63
2018-09-13T08:43:59.246Z,7.30
2018-09-13T08:46:27.865Z,8.27
2018-09-13T08:48:56.470Z,9.60
2018-09-13T08:51:25.145Z,13.87
2018-09-13T08:53:53.849Z,10.82
2018-09-13T08:56:22.516Z,8.00
2018-09-13T08:58:51.153Z,9.30
2018-09-13T09:01:19.811Z,9.67
2018-09-13T09:03:48.474Z,9.40
2018-09-13T09:06:17.223Z,11.15
2018-09-13T09:08:45.886Z,13.45
2018-09-13T09:11:14.530Z,8.58
2018-09-13T09:13:43.250Z,6.70
2018-09-13T09:16:11.949Z,7.62
2018-09-13T09:18:40.769Z,5.28
2018-09-13T09:21:09.302Z,7.17
2018-09-13T09:23:37.986Z,6.58
2018-09-13T09:26:06.759Z,8.83
2018-09-13T09:28:35.415Z,10.35
2018-09-13T09:31:04.045Z,12.07
2018-09-13T09:33:32.775Z,11.88
2018-09-13T09:36:01.408Z,11.12
2018-09-13T09:38:30.089Z,10.08
2018-09-13T09:40:58.725Z,11.78
2018-09-13T09:43:27.404Z,12.13
2018-09-13T09:45:56.044Z,12.00
2018-09-13T09:48:24.676Z,11.30
2018-09-13T09:50:53.367Z,11.22
2018-09-13T09:53:21.998Z,12.30
2018-09-13T09:55:50.648Z,9.98
2018-09-13T09:58:19.251Z,9.75
2018-09-13T10:02:57.582Z,8.00
2018-09-13T10:05:26.319Z,12.20
2018-09-13T10:07:54.969Z,10.65
2018-09-13T10:10:23.642Z,5.97
2018-09-13T10:12:52.251Z,8.93
2018-09-13T10:15:26.275Z,6.37
2018-09-13T10:18:00.191Z,4.90
2018-09-13T10:20:34.104Z,5.47
2018-09-13T10:23:07.953Z,5.62
2018-09-13T10:25:41.954Z,4.90
2018-09-13T10:28:15.867Z,4.53
2018-09-13T10:30:49.645Z,7.03
2018-09-13T10:33:23.413Z,4.00
2018-09-13T10:35:57.281Z,6.05
2018-09-13T10:38:31.285Z,4.28
2018-09-13T10:41:05.269Z,4.05
2018-09-13T10:43:39.346Z,5.17
2018-09-13T10:46:13.138Z,5.65
2018-09-13T10:48:46.902Z,4.80
2018-09-13T10:51:21.405Z,4.78
2018-09-13T10:53:54.262Z,4.35
2018-09-13T10:56:22.866Z,5.33
2018-09-13T10:58:51.509Z,5.22
2018-09-13T11:01:20.117Z,7.60
2018-09-13T11:03:48.795Z,4.60
2018-09-13T11:06:17.486Z,5.58
2018-09-13T11:08:46.229Z,7.55
2018-09-13T11:11:14.976Z,7.97
2018-09-13T11:15:55.496Z,6.15
2018-09-13T11:18:24.160Z,11.15
2018-09-13T11:20:52.878Z,6.85
2018-09-13T11:23:21.579Z,6.37
2018-09-13T11:25:50.316Z,6.72
2018-09-13T11:28:18.989Z,5.67
2018-09-13T11:30:51.809Z,4.80
2018-09-13T11:33:20.440Z,6.37
2018-09-13T11:35:49.074Z,7.62
2018-09-13T11:38:17.729Z,6.97
2018-09-13T11:40:46.525Z,7.53
2018-09-13T11:43:15.022Z,8.30
2018-09-13T11:45:43.696Z,8.13
2018-09-13T11:48:12.315Z,7.42
2018-09-13T11:50:41.483Z,7.90
2018-09-13T11:53:10.363Z,5.45
2018-09-13T11:55:42.077Z,6.03
2018-09-13T11:58:11.932Z,6.15
2018-09-13T12:00:40.957Z,7.50
2018-09-13T12:03:09.605Z,5.83
2018-09-13T12:05:38.344Z,8.25
2018-09-13T12:08:07.152Z,5.47
2018-09-13T12:10:35.827Z,6.55
2018-09-13T12:13:04.518Z,8.05
2018-09-13T12:15:33.157Z,6.05
2018-09-13T12:18:01.878Z,6.22
2018-09-13T12:20:30.535Z,5.45
2018-09-13T12:22:59.187Z,5.87
2018-09-13T12:25:27.891Z,4.42
2018-09-13T12:27:56.556Z,4.90
2018-09-13T12:30:25.205Z,5.33
2018-09-13T12:32:53.831Z,4.45
2018-09-13T12:35:22.482Z,7.05
2018-09-13T12:37:51.155Z,6.55
2018-09-13T12:40:19.805Z,5.30
2018-09-13T12:42:48.484Z,5.58
2018-09-13T12:45:17.144Z,7.47
2018-09-13T12:47:45.796Z,4.47
2018-09-13T12:50:14.476Z,6.40
2018-09-13T12:52:43.174Z,4.33
2018-09-13T12:55:11.802Z,4.20
2018-09-13T12:57:40.473Z,5.00
2018-09-13T13:00:09.185Z,5.40
2018-09-13T13:02:37.883Z,5.17
2018-09-13T13:05:06.587Z,5.60
2018-09-13T13:07:35.345Z,5.60
2018-09-13T13:10:04.016Z,6.17
2018-09-13T13:12:32.693Z,6.72
2018-09-13T13:15:01.502Z,4.12
2018-09-13T13:17:30.194Z,3.77
2018-09-13T13:19:59.122Z,4.85
2018-09-13T13:22:27.780Z,5.50
2018-09-13T13:24:56.438Z,7.33
2018-09-13T13:27:25.064Z,4.70
2018-09-13T13:29:53.689Z,4.55
2018-09-13T13:32:22.354Z,5.05
2018-09-13T13:34:51.825Z,5.97
2018-09-13T13:37:20.495Z,4.72
2018-09-13T13:39:49.128Z,4.45
2018-09-13T13:42:17.846Z,4.85
2018-09-13T13:44:46.500Z,4.03
2018-09-13T13:47:15.154Z,4.87
2018-09-13T13:49:43.846Z,5.10
2018-09-13T13:52:12.540Z,5.53
2018-09-13T13:54:41.159Z,3.83
2018-09-13T13:57:09.844Z,5.30
2018-09-13T13:59:53.091Z,5.03
2018-09-13T14:02:21.785Z,5.17
2018-09-13T14:04:50.409Z,3.33
2018-09-13T14:07:19.095Z,5.60
2018-09-13T14:09:48.130Z,3.40
2018-09-13T14:12:16.689Z,3.83
2018-09-13T14:14:45.886Z,4.75
2018-09-13T14:17:14.564Z,5.10
2018-09-13T14:19:43.489Z,3.85
2018-09-13T14:22:12.184Z,5.85
2018-09-13T14:24:40.794Z,4.10
2018-09-13T14:27:09.501Z,6.87
2018-09-13T14:29:38.193Z,6.95
2018-09-13T14:32:06.890Z,6.37
2018-09-13T14:34:35.493Z,6.95
2018-09-13T14:37:04.187Z,6.95
2018-09-13T14:39:32.862Z,6.58
2018-09-13T14:42:01.590Z,4.60
2018-09-13T14:44:30.263Z,5.33
2018-09-13T14:46:58.963Z,5.03
2018-09-13T14:49:27.609Z,4.25
2018-09-13T14:51:56.261Z,4.50
2018-09-13T14:54:24.988Z,6.45
2018-09-13T14:56:53.606Z,5.95
2018-09-13T14:59:22.300Z,6.55
2018-09-13T15:01:50.950Z,5.08
2018-09-13T15:04:19.594Z,5.75
2018-09-13T15:06:48.345Z,4.95
2018-09-13T15:09:16.958Z,5.60
2018-09-13T15:11:45.645Z,4.50
2018-09-13T15:14:14.274Z,5.50
2018-09-13T15:16:42.936Z,5.10
2018-09-13T15:19:11.538Z,5.28
2018-09-13T15:21:40.231Z,6.55
2018-09-13T15:24:09.094Z,6.15
2018-09-13T15:26:37.736Z,6.20
2018-09-13T15:29:06.512Z,4.83
2018-09-13T15:31:35.192Z,4.72
2018-09-13T15:34:03.882Z,4.80
2018-09-13T15:36:32.572Z,7.37
2018-09-13T15:39:01.270Z,5.45
2018-09-13T15:41:30.256Z,5.20
2018-09-13T15:43:58.627Z,4.92
2018-09-13T15:46:27.324Z,7.03
2018-09-13T15:48:56.051Z,4.78
2018-09-13T15:51:24.737Z,5.08
2018-09-13T15:53:53.416Z,4.83
2018-09-13T15:56:22.081Z,4.22
2018-09-13T15:58:50.814Z,4.33
2018-09-13T16:01:19.470Z,4.12
2018-09-13T16:03:48.118Z,6.30
2018-09-13T16:06:16.788Z,7.55
2018-09-13T16:08:45.539Z,5.05
2018-09-13T16:11:14.176Z,6.00
2018-09-13T16:13:42.864Z,4.87
2018-09-13T16:16:11.496Z,3.17
2018-09-13T16:18:40.160Z,5.28
2018-09-13T16:21:09.058Z,3.87
2018-09-13T16:23:37.719Z,3.85
2018-09-13T16:26:06.494Z,5.17
2018-09-13T16:28:35.043Z,3.65
2018-09-13T16:31:03.776Z,4.47
2018-09-13T16:33:32.444Z,4.17
2018-09-13T16:36:01.577Z,4.42
2018-09-13T16:38:35.532Z,6.12
2018-09-13T16:41:09.527Z,3.83
2018-09-13T16:43:43.409Z,3.70
2018-09-13T16:46:18.266Z,3.65
2018-09-13T16:48:46.913Z,4.28
2018-09-13T16:51:15.533Z,4.33
2018-09-13T16:53:44.192Z,4.58
2018-09-13T16:56:12.833Z,3.02
2018-09-13T16:58:41.520Z,4.20
2018-09-13T17:01:10.195Z,3.45
2018-09-13T17:03:38.920Z,4.53
2018-09-13T17:06:07.609Z,4.15
2018-09-13T17:08:36.321Z,3.92
2018-09-13T17:11:05.058Z,4.25
2018-09-13T17:13:33.729Z,4.30
2018-09-13T17:16:02.422Z,5.55
2018-09-13T17:18:31.098Z,5.80
2018-09-13T17:20:59.798Z,5.08
2018-09-13T17:23:28.495Z,5.87
2018-09-13T17:25:57.168Z,4.72
2018-09-13T17:28:25.866Z,3.90
2018-09-13T17:30:54.480Z,8.28
2018-09-13T17:33:23.137Z,4.65
2018-09-13T17:35:51.813Z,4.05
2018-09-13T17:38:20.472Z,4.20
2018-09-13T17:40:49.137Z,6.72
2018-09-13T17:43:17.776Z,10.05
2018-09-13T17:45:46.469Z,13.35
2018-09-13T17:48:15.107Z,6.37
2018-09-13T17:50:43.743Z,5.70
2018-09-13T17:53:12.391Z,6.87
2018-09-13T17:55:41.105Z,6.37
2018-09-13T17:58:09.754Z,7.13
2018-09-13T18:00:38.439Z,7.03
2018-09-13T18:03:07.116Z,4.80
2018-09-13T18:05:35.844Z,8.43
2018-09-13T18:08:04.521Z,6.17
2018-09-13T18:10:33.248Z,5.73
2018-09-13T18:13:02.146Z,5.13
2018-09-13T18:15:30.833Z,5.67
2018-09-13T18:17:59.527Z,4.93
2018-09-13T18:20:28.295Z,4.50
2018-09-13T18:22:56.982Z,5.90
2018-09-13T18:25:25.666Z,5.60
2018-09-13T18:27:54.309Z,5.07
2018-09-13T18:30:23.037Z,5.90
2018-09-13T18:32:51.715Z,8.63
2018-09-13T18:35:20.403Z,6.80
2018-09-13T18:37:49.083Z,5.83
2018-09-13T18:40:17.789Z,9.90
2018-09-13T18:42:46.429Z,8.80
2018-09-13T18:45:15.160Z,9.67
2018-09-13T18:47:43.960Z,9.10
2018-09-13T18:50:12.699Z,11.97
2018-09-13T18:52:41.536Z,10.80
2018-09-13T18:55:10.187Z,11.40
2018-09-13T18:57:38.821Z,10.00
2018-09-13T19:00:07.648Z,8.30
2018-09-13T19:02:36.375Z,9.60
2018-09-13T19:05:05.349Z,9.97
2018-09-13T19:07:34.059Z,13.57
2018-09-13T19:10:02.902Z,15.83
2018-09-13T19:12:31.655Z,20.30
2018-09-13T19:15:00.371Z,21.97
2018-09-13T19:17:28.687Z,26.00
2018-09-13T19:19:57.489Z,17.90
2018-09-13T19:22:26.171Z,13.77
2018-09-13T19:24:54.938Z,10.53
2018-09-13T19:27:23.614Z,10.87
2018-09-13T19:29:52.272Z,14.97
2018-09-13T19:32:20.998Z,18.43
2018-09-13T19:34:49.698Z,26.43
2018-09-13T19:37:18.465Z,37.37
2018-09-13T19:39:47.250Z,23.30
2018-09-13T19:42:16.924Z,12.80
2018-09-13T19:44:45.648Z,8.40
2018-09-13T19:47:14.438Z,6.47
2018-09-13T19:49:43.166Z,8.17
2018-09-13T19:52:11.810Z,7.27
2018-09-13T19:54:40.485Z,6.73
2018-09-13T19:57:09.234Z,6.40
2018-09-13T19:59:37.907Z,7.83
2018-09-13T20:02:06.679Z,7.43
2018-09-13T20:04:35.374Z,7.03
2018-09-13T20:07:04.283Z,6.13
2018-09-13T20:09:32.963Z,5.40
2018-09-13T20:12:01.688Z,5.10
2018-09-13T20:14:30.360Z,6.37
2018-09-13T20:16:58.981Z,5.50
2018-09-13T20:19:27.653Z,5.60
2018-09-13T20:21:56.311Z,5.70
2018-09-13T20:24:24.942Z,7.83
2018-09-13T20:26:53.562Z,8.07
2018-09-13T20:29:22.274Z,7.53
2018-09-13T20:31:50.936Z,11.90
2018-09-13T20:34:19.629Z,9.30
2018-09-13T20:36:49.165Z,8.30
2018-09-13T20:39:17.775Z,11.03
2018-09-13T20:41:46.437Z,8.97
2018-09-13T20:44:15.050Z,6.60
2018-09-13T20:46:43.727Z,6.40
2018-09-13T20:49:12.815Z,9.13
2018-09-13T20:51:41.529Z,9.33
2018-09-13T20:54:10.211Z,8.63
2018-09-13T20:56:38.909Z,10.87
2018-09-13T20:59:07.651Z,10.33
2018-09-13T21:01:36.344Z,10.37
2018-09-13T21:04:05.120Z,6.20
2018-09-13T21:06:33.793Z,6.37
2018-09-13T21:09:02.446Z,6.53
2018-09-13T21:11:31.105Z,6.27
2018-09-13T21:13:59.789Z,7.47
2018-09-13T21:16:28.426Z,8.07
2018-09-13T21:18:57.094Z,7.50
2018-09-13T21:21:25.760Z,6.90
2018-09-13T21:23:54.485Z,8.53
2018-09-13T21:26:23.094Z,8.40
2018-09-13T21:28:51.756Z,8.90
2018-09-13T21:31:20.432Z,9.13
2018-09-13T21:33:48.711Z,12.07
2018-09-13T21:36:17.396Z,11.00
2018-09-13T21:38:46.075Z,10.53
2018-09-13T21:41:14.683Z,10.63
2018-09-13T21:43:43.380Z,11.50
2018-09-13T21:46:12.049Z,10.00
2018-09-13T21:48:40.681Z,8.60
2018-09-13T21:51:09.348Z,7.23
2018-09-13T21:53:38.019Z,7.50
2018-09-13T21:56:06.756Z,9.23
2018-09-13T21:58:35.540Z,8.37
2018-09-13T22:01:04.569Z,6.90
2018-09-13T22:03:33.251Z,7.50
2018-09-13T22:06:01.897Z,9.60
2018-09-13T22:08:30.591Z,8.93
2018-09-13T22:10:59.251Z,7.80
2018-09-13T22:13:32.628Z,8.50
2018-09-13T22:16:02.454Z,8.80
2018-09-13T22:18:31.772Z,7.80
2018-09-13T22:21:00.462Z,8.10
2018-09-13T22:23:29.122Z,8.13
2018-09-13T22:25:57.778Z,8.33
2018-09-13T22:28:26.399Z,7.63
2018-09-13T22:30:55.079Z,7.60
2018-09-13T22:33:23.736Z,7.30
2018-09-13T22:35:52.384Z,7.73
2018-09-13T22:38:21.019Z,8.70
2018-09-13T22:40:49.279Z,10.50
2018-09-13T22:43:17.929Z,9.97
2018-09-13T22:45:46.589Z,10.47
2018-09-13T22:48:15.284Z,9.67
2018-09-13T22:50:43.987Z,10.20
2018-09-13T22:53:12.684Z,10.50
2018-09-13T22:55:41.345Z,10.83
2018-09-13T22:58:10.051Z,13.73
2018-09-13T23:00:38.725Z,10.90
2018-09-13T23:03:07.573Z,10.47
2018-09-13T23:05:36.236Z,9.73
2018-09-13T23:08:04.910Z,11.10
2018-09-13T23:10:33.545Z,12.07
2018-09-13T23:13:02.199Z,12.03
2018-09-13T23:15:30.869Z,12.03
2018-09-13T23:17:59.545Z,11.77
2018-09-13T23:20:28.266Z,11.70
2018-09-13T23:22:56.962Z,12.17
2018-09-13T23:25:25.598Z,11.80
2018-09-13T23:27:54.314Z,13.93
2018-09-13T23:30:23.019Z,12.80
2018-09-13T23:32:51.653Z,15.13
2018-09-13T23:35:20.325Z,15.93
2018-09-13T23:37:48.993Z,16.70
2018-09-13T23:40:17.744Z,18.87
2018-09-13T23:42:46.417Z,15.93
2018-09-13T23:45:15.204Z,16.53
2018-09-13T23:47:43.858Z,16.73
2018-09-13T23:50:12.565Z,18.10
2018-09-13T23:52:41.249Z,17.43
2018-09-13T23:55:09.941Z,17.43
2018-09-13T23:57:38.645Z,16.70
